Time;durP1;ratioP1;P1;durP2;ratioP2;P2;SDS_P1;SDS_P2;PMS_P1;PMS_P2;Temp;Humidity;BMP_temperature;BMP_pressure;BME280_temperature;BME280_humidity;BME280_pressure;Samples;Min_cycle;Max_cycle;Signal;HPM_P1;HPM_P2
2023/08/11 00:01:37;;;;;;;5.27;3.40;;;;;;;;;;4997713;28;92935;-62
2023/08/11 00:04:06;;;;;;;5.33;3.53;;;;;;;;;;4997848;28;91893;-61
2023/08/11 00:06:34;;;;;;;4.90;3.30;;;;;;;;;;4996653;28;92168;-61
2023/08/11 00:09:06;;;;;;;4.40;3.73;;;;;;;;;;4996623;28;94098;-62
2023/08/11 00:11:34;;;;;;;4.07;3.67;;;;;;;;;;4997004;28;92531;-61
2023/08/11 00:14:03;;;;;;;5.87;3.90;;;;;;;;;;4997590;28;92004;-62
2023/08/11 00:16:33;;;;;;;4.83;3.53;;;;;;;;;;4996674;28;92114;-61
2023/08/11 00:19:01;;;;;;;5.57;3.87;;;;;;;;;;4996933;28;93110;-61
2023/08/11 00:21:30;;;;;;;5.77;3.40;;;;;;;;;;4997332;28;92743;-61
2023/08/11 00:23:59;;;;;;;8.13;3.60;;;;;;;;;;5000335;28;91996;-61
2023/08/11 00:26:30;;;;;;;5.77;4.10;;;;;;;;;;5000172;28;91400;-62
2023/08/11 00:28:58;;;;;;;5.50;4.07;;;;;;;;;;5000792;28;93230;-61
2023/08/11 00:31:27;;;;;;;7.27;3.00;;;;;;;;;;4999761;28;93848;-61
2023/08/11 00:33:57;;;;;;;5.73;3.50;;;;;;;;;;4999984;28;93001;-62
2023/08/11 00:36:25;;;;;;;3.53;3.13;;;;;;;;;;5000499;28;92045;-62
2023/08/11 00:39:00;;;;;;;5.83;3.40;;;;;;;;;;5000023;28;94094;-62
2023/08/11 00:41:28;;;;;;;4.57;3.00;;;;;;;;;;4999474;28;92128;-62
2023/08/11 00:43:56;;;;;;;5.43;3.23;;;;;;;;;;5000682;28;92100;-62
2023/08/11 00:46:25;;;;;;;5.83;3.60;;;;;;;;;;5004203;28;92028;-62
2023/08/11 00:48:53;;;;;;;5.50;3.40;;;;;;;;;;5009999;28;92692;-62
2023/08/11 00:51:23;;;;;;;3.90;2.83;;;;;;;;;;5000747;28;93883;-62
2023/08/11 00:53:52;;;;;;;4.03;3.27;;;;;;;;;;5000560;28;92105;-62
2023/08/11 00:56:20;;;;;;;3.60;3.03;;;;;;;;;;4999849;28;92110;-62
2023/08/11 00:58:49;;;;;;;5.30;3.20;;;;;;;;;;4997343;28;94127;-62
2023/08/11 01:01:17;;;;;;;6.30;3.67;;;;;;;;;;5000074;28;92471;-62
2023/08/11 01:03:47;;;;;;;3.13;2.60;;;;;;;;;;5000665;28;92110;-61
2023/08/11 01:06:18;;;;;;;3.90;2.93;;;;;;;;;;4999725;28;92067;-61
2023/08/11 01:08:50;;;;;;;3.20;2.57;;;;;;;;;;4998957;28;93081;-61
2023/08/11 01:11:21;;;;;;;5.10;3.13;;;;;;;;;;4998283;28;94170;-61
2023/08/11 01:13:53;;;;;;;4.10;2.83;;;;;;;;;;5000204;28;92052;-61
2023/08/11 01:16:21;;;;;;;3.33;3.03;;;;;;;;;;4999079;28;91305;-62
2023/08/11 01:18:50;;;;;;;3.57;2.73;;;;;;;;;;4999547;28;93234;-62
2023/08/11 01:21:18;;;;;;;5.50;2.90;;;;;;;;;;4992197;28;92727;-62
2023/08/11 01:23:48;;;;;;;3.03;2.60;;;;;;;;;;4998645;28;93046;-62
2023/08/11 01:26:17;;;;;;;3.47;2.37;;;;;;;;;;4999960;28;91945;-62
2023/08/11 01:28:47;;;;;;;4.33;2.43;;;;;;;;;;4999957;28;93072;-62
2023/08/11 01:31:15;;;;;;;4.63;2.83;;;;;;;;;;4998653;28;92918;-62
2023/08/11 01:33:44;;;;;;;3.80;2.80;;;;;;;;;;4999317;28;91759;-62
2023/08/11 01:36:12;;;;;;;3.90;2.90;;;;;;;;;;5000647;28;91984;-62
2023/08/11 01:38:41;;;;;;;4.33;2.87;;;;;;;;;;5016417;28;94128;-62
2023/08/11 01:41:11;;;;;;;2.40;2.20;;;;;;;;;;5020786;28;93704;-62
2023/08/11 01:43:40;;;;;;;2.83;2.50;;;;;;;;;;5019492;28;92039;-62
2023/08/11 01:46:08;;;;;;;4.60;3.00;;;;;;;;;;5019128;28;92067;-62
2023/08/11 01:48:37;;;;;;;4.47;2.50;;;;;;;;;;5019092;28;94141;-62
2023/08/11 01:51:05;;;;;;;2.87;2.40;;;;;;;;;;5019478;28;95062;-62
2023/08/11 01:53:34;;;;;;;4.10;2.50;;;;;;;;;;5020430;28;91844;-62
2023/08/11 01:56:02;;;;;;;3.23;2.43;;;;;;;;;;5002453;28;92161;-63
2023/08/11 01:58:32;;;;;;;3.10;2.50;;;;;;;;;;4980897;28;93158;-62
2023/08/11 02:01:02;;;;;;;3.73;2.77;;;;;;;;;;4983418;28;93131;-62
2023/08/11 02:03:31;;;;;;;4.33;2.57;;;;;;;;;;4998875;28;91872;-63
2023/08/11 02:05:59;;;;;;;3.80;2.60;;;;;;;;;;4998767;28;91527;-62
2023/08/11 02:08:28;;;;;;;3.10;2.50;;;;;;;;;;4998512;28;94188;-61
2023/08/11 02:10:56;;;;;;;6.80;2.90;;;;;;;;;;4998799;28;92539;-61
2023/08/11 02:13:25;;;;;;;3.47;2.40;;;;;;;;;;5009040;28;93009;-62
2023/08/11 02:15:54;;;;;;;3.13;2.60;;;;;;;;;;4998471;28;91945;-62
2023/08/11 02:18:23;;;;;;;3.90;2.90;;;;;;;;;;4998651;28;93132;-62
2023/08/11 02:20:51;;;;;;;3.10;2.53;;;;;;;;;;4997877;28;93834;-62
2023/08/11 02:23:20;;;;;;;3.70;2.77;;;;;;;;;;4998387;28;92030;-62
2023/08/11 02:25:48;;;;;;;3.13;2.23;;;;;;;;;;4998577;28;92043;-62
2023/08/11 02:28:17;;;;;;;2.60;2.27;;;;;;;;;;4999032;28;93944;-62
2023/08/11 02:30:46;;;;;;;6.67;2.60;;;;;;;;;;4999215;28;93266;-62
2023/08/11 02:33:18;;;;;;;4.10;2.73;;;;;;;;;;4999225;28;91981;-62
2023/08/11 02:35:46;;;;;;;3.37;2.93;;;;;;;;;;4998918;28;92091;-62
2023/08/11 02:38:15;;;;;;;3.53;2.20;;;;;;;;;;4997866;28;94081;-62
2023/08/11 02:40:43;;;;;;;2.50;2.30;;;;;;;;;;4998013;28;94997;-62
2023/08/11 02:43:12;;;;;;;2.50;1.83;;;;;;;;;;4997579;28;92083;-61
2023/08/11 02:45:40;;;;;;;3.90;2.40;;;;;;;;;;4998559;28;91960;-61
2023/08/11 02:48:09;;;;;;;2.43;1.97;;;;;;;;;;4983509;28;93108;-62
2023/08/11 02:50:39;;;;;;;3.70;2.47;;;;;;;;;;4978723;28;93204;-62
2023/08/11 02:53:07;;;;;;;3.17;2.30;;;;;;;;;;4979170;28;91981;-62
2023/08/11 02:55:36;;;;;;;3.47;1.93;;;;;;;;;;4979248;28;91345;-62
2023/08/11 02:58:04;;;;;;;2.63;2.27;;;;;;;;;;4979659;28;93329;-62
2023/08/11 03:00:34;;;;;;;3.63;2.40;;;;;;;;;;4978540;28;92590;-62
2023/08/11 03:03:02;;;;;;;2.33;2.13;;;;;;;;;;4978585;28;92722;-62
2023/08/11 03:05:31;;;;;;;2.80;2.30;;;;;;;;;;4978207;28;92157;-62
2023/08/11 03:08:01;;;;;;;2.97;2.07;;;;;;;;;;4984348;28;94162;-61
2023/08/11 03:10:29;;;;;;;3.27;2.33;;;;;;;;;;4998306;28;92443;-62
2023/08/11 03:13:10;;;;;;;2.30;2.03;;;;;;;;;;4988912;28;92053;-62
2023/08/11 03:15:38;;;;;;;2.63;1.90;;;;;;;;;;4978766;28;93029;-64
2023/08/11 03:18:07;;;;;;;2.73;1.93;;;;;;;;;;4985646;28;93182;-63
2023/08/11 03:20:36;;;;;;;2.23;1.73;;;;;;;;;;4998366;28;94036;-62
2023/08/11 03:23:06;;;;;;;2.13;1.60;;;;;;;;;;4998165;28;92029;-62
2023/08/11 03:25:35;;;;;;;2.70;2.27;;;;;;;;;;4998663;28;91918;-62
2023/08/11 03:28:03;;;;;;;2.10;1.77;;;;;;;;;;4991312;28;94310;-62
2023/08/11 03:30:32;;;;;;;2.53;2.17;;;;;;;;;;4978284;28;93655;-63
2023/08/11 03:33:00;;;;;;;4.07;1.60;;;;;;;;;;4978786;28;91995;-62
2023/08/11 03:35:29;;;;;;;2.30;1.70;;;;;;;;;;4978723;28;92046;-62
2023/08/11 03:37:57;;;;;;;2.00;1.80;;;;;;;;;;4979394;28;94147;-62
2023/08/11 03:40:27;;;;;;;2.50;1.87;;;;;;;;;;4977861;28;93818;-62
2023/08/11 03:42:55;;;;;;;2.20;1.53;;;;;;;;;;4980694;28;92327;-61
2023/08/11 03:45:24;;;;;;;3.10;1.90;;;;;;;;;;4998339;28;91171;-62
2023/08/11 03:47:52;;;;;;;3.70;1.83;;;;;;;;;;4997628;28;93283;-62
2023/08/11 03:50:21;;;;;;;2.07;1.53;;;;;;;;;;4997283;28;92956;-62
2023/08/11 03:52:49;;;;;;;2.83;1.60;;;;;;;;;;4997211;28;92912;-62
2023/08/11 03:55:17;;;;;;;1.53;1.43;;;;;;;;;;4997851;28;93058;-62
2023/08/11 03:57:47;;;;;;;2.00;1.77;;;;;;;;;;4997259;28;92971;-61
2023/08/11 04:00:16;;;;;;;2.63;1.60;;;;;;;;;;4983678;28;92776;-62
2023/08/11 04:02:45;;;;;;;2.33;1.83;;;;;;;;;;4984829;28;91769;-62
2023/08/11 04:05:14;;;;;;;2.30;1.77;;;;;;;;;;4984802;28;92073;-62
2023/08/11 04:07:42;;;;;;;1.70;1.53;;;;;;;;;;4985387;28;92982;-62
2023/08/11 04:10:11;;;;;;;1.93;1.57;;;;;;;;;;4984339;28;94001;-62
2023/08/11 04:12:40;;;;;;;1.93;1.23;;;;;;;;;;4986273;28;92061;-61
2023/08/11 04:15:10;;;;;;;2.10;1.67;;;;;;;;;;5003423;28;92093;-62
2023/08/11 04:17:39;;;;;;;2.43;1.43;;;;;;;;;;5003630;28;93041;-62
2023/08/11 04:20:12;;;;;;;1.50;1.20;;;;;;;;;;4984073;28;94070;-62
2023/08/11 04:22:41;;;;;;;2.10;1.80;;;;;;;;;;4984269;28;92045;-61
2023/08/11 04:25:10;;;;;;;2.03;1.20;;;;;;;;;;4984060;28;92179;-62
2023/08/11 04:27:39;;;;;;;1.77;1.63;;;;;;;;;;4983338;28;93277;-62
2023/08/11 04:30:08;;;;;;;1.50;1.37;;;;;;;;;;4983407;28;92914;-61
2023/08/11 04:32:38;;;;;;;2.33;1.70;;;;;;;;;;4984721;28;91805;-62
2023/08/11 04:35:07;;;;;;;3.00;1.50;;;;;;;;;;4984703;28;91318;-62
2023/08/11 04:37:36;;;;;;;1.93;1.37;;;;;;;;;;4998347;28;93305;-62
2023/08/11 04:40:09;;;;;;;1.70;1.50;;;;;;;;;;5001934;28;92893;-62
2023/08/11 04:42:37;;;;;;;1.67;1.37;;;;;;;;;;5001110;28;93044;-61
2023/08/11 04:45:06;;;;;;;2.13;1.63;;;;;;;;;;4984834;28;92082;-62
2023/08/11 04:47:35;;;;;;;1.60;1.50;;;;;;;;;;4983384;28;92044;-62
2023/08/11 04:50:05;;;;;;;1.10;1.00;;;;;;;;;;4996226;28;92881;-62
2023/08/11 04:52:33;;;;;;;1.50;1.40;;;;;;;;;;5003543;28;92127;-61
2023/08/11 04:55:03;;;;;;;1.90;1.30;;;;;;;;;;5003511;28;92152;-62
2023/08/11 04:57:31;;;;;;;1.10;1.00;;;;;;;;;;5003447;28;93165;-61
2023/08/11 05:00:00;;;;;;;1.33;1.20;;;;;;;;;;4997334;28;92734;-62
2023/08/11 05:02:34;;;;;;;1.47;1.37;;;;;;;;;;5002847;28;92059;-62
2023/08/11 05:05:05;;;;;;;1.57;1.47;;;;;;;;;;5003168;28;91895;-62
2023/08/11 05:07:35;;;;;;;1.93;1.00;;;;;;;;;;5001493;28;95387;-62
2023/08/11 05:10:04;;;;;;;1.40;1.27;;;;;;;;;;4987033;28;94921;-62
2023/08/11 05:12:32;;;;;;;1.50;1.40;;;;;;;;;;4980192;28;92048;-62
2023/08/11 05:15:01;;;;;;;1.57;1.10;;;;;;;;;;4996504;28;92021;-62
2023/08/11 05:17:29;;;;;;;1.70;1.10;;;;;;;;;;5000625;28;93178;-62
2023/08/11 05:19:58;;;;;;;1.67;1.30;;;;;;;;;;4996086;28;93984;-62
2023/08/11 05:22:26;;;;;;;1.90;1.00;;;;;;;;;;4986086;28;92919;-61
2023/08/11 05:24:57;;;;;;;1.20;1.10;;;;;;;;;;4979734;28;91289;-62
2023/08/11 05:27:25;;;;;;;0.80;0.80;;;;;;;;;;4980116;28;94062;-62
2023/08/11 05:29:54;;;;;;;1.10;1.00;;;;;;;;;;4992577;28;93549;-62
2023/08/11 05:32:23;;;;;;;1.10;1.00;;;;;;;;;;4999882;28;92921;-62
2023/08/11 05:34:51;;;;;;;3.00;1.40;;;;;;;;;;5000096;28;92135;-62
2023/08/11 05:37:21;;;;;;;1.67;1.17;;;;;;;;;;4999385;28;92929;-62
2023/08/11 05:39:49;;;;;;;2.50;1.57;;;;;;;;;;4996929;28;92778;-61
2023/08/11 05:42:19;;;;;;;1.07;1.03;;;;;;;;;;4990408;28;92105;-62
2023/08/11 05:44:48;;;;;;;5.33;1.37;;;;;;;;;;4989195;28;92027;-62
2023/08/11 05:47:16;;;;;;;1.37;1.20;;;;;;;;;;4986771;28;94126;-62
2023/08/11 05:49:45;;;;;;;1.93;1.20;;;;;;;;;;4991070;28;93618;-62
2023/08/11 05:52:13;;;;;;;1.10;1.00;;;;;;;;;;4988501;28;92041;-62
2023/08/11 05:54:42;;;;;;;1.50;1.37;;;;;;;;;;4988419;28;92164;-62
2023/08/11 05:57:10;;;;;;;1.63;1.17;;;;;;;;;;4987442;28;94039;-62
2023/08/11 05:59:40;;;;;;;4.10;0.90;;;;;;;;;;4989307;28;94834;-62
2023/08/11 06:02:08;;;;;;;1.97;1.20;;;;;;;;;;4999511;28;92087;-62
2023/08/11 06:04:37;;;;;;;1.23;0.80;;;;;;;;;;4991295;28;92128;-62
2023/08/11 06:07:06;;;;;;;3.33;1.37;;;;;;;;;;4989873;28;92910;-62
2023/08/11 06:09:35;;;;;;;2.27;1.37;;;;;;;;;;4989388;28;92122;-62
2023/08/11 06:12:03;;;;;;;1.30;1.00;;;;;;;;;;4988384;28;91947;-61
2023/08/11 06:14:32;;;;;;;1.10;1.00;;;;;;;;;;4986010;28;91439;-62
2023/08/11 06:17:01;;;;;;;1.40;1.20;;;;;;;;;;4989136;28;93004;-61
2023/08/11 06:19:30;;;;;;;1.77;1.30;;;;;;;;;;4987042;28;92696;-62
2023/08/11 06:21:59;;;;;;;1.20;1.07;;;;;;;;;;4996188;28;93546;-62
2023/08/11 06:24:29;;;;;;;1.70;1.20;;;;;;;;;;4999277;28;92098;-61
2023/08/11 06:26:57;;;;;;;1.10;1.00;;;;;;;;;;4980838;28;96478;-61
2023/08/11 06:29:26;;;;;;;1.70;1.40;;;;;;;;;;4994303;28;92241;-61
2023/08/11 06:31:54;;;;;;;1.20;0.93;;;;;;;;;;4978839;28;92023;-62
2023/08/11 06:34:24;;;;;;;1.40;0.97;;;;;;;;;;4989603;28;92212;-62
2023/08/11 06:36:53;;;;;;;1.87;1.20;;;;;;;;;;4981850;28;94134;-61
2023/08/11 06:39:21;;;;;;;3.63;1.40;;;;;;;;;;4983354;28;93108;-62
2023/08/11 06:41:50;;;;;;;1.40;1.00;;;;;;;;;;4997400;28;92113;-62
2023/08/11 06:44:19;;;;;;;1.87;1.20;;;;;;;;;;4992654;28;92318;-62
2023/08/11 06:46:47;;;;;;;1.30;1.10;;;;;;;;;;4978141;28;94062;-62
2023/08/11 06:49:16;;;;;;;1.80;1.50;;;;;;;;;;4979179;28;93656;-62
2023/08/11 06:51:45;;;;;;;2.27;1.57;;;;;;;;;;4998794;28;92086;-62
2023/08/11 06:54:14;;;;;;;1.63;1.53;;;;;;;;;;4997512;28;92085;-62
2023/08/11 06:56:42;;;;;;;1.50;1.30;;;;;;;;;;4989986;28;93326;-62
2023/08/11 06:59:11;;;;;;;1.83;1.67;;;;;;;;;;4979802;28;96539;-62
2023/08/11 07:01:39;;;;;;;2.23;1.73;;;;;;;;;;4998056;28;91960;-62
2023/08/11 07:04:08;;;;;;;2.00;1.50;;;;;;;;;;4998754;28;91397;-62
2023/08/11 07:06:37;;;;;;;1.83;1.63;;;;;;;;;;4989304;28;93059;-62
2023/08/11 07:09:07;;;;;;;1.67;1.50;;;;;;;;;;4989359;28;92753;-62
2023/08/11 07:11:35;;;;;;;2.80;2.10;;;;;;;;;;4987273;28;93012;-62
2023/08/11 07:14:04;;;;;;;3.73;2.00;;;;;;;;;;4991323;28;92088;-62
2023/08/11 07:16:33;;;;;;;2.20;1.70;;;;;;;;;;4991046;28;93588;-62
2023/08/11 07:19:01;;;;;;;2.40;1.73;;;;;;;;;;4981896;28;93867;-63
2023/08/11 07:21:30;;;;;;;2.47;2.10;;;;;;;;;;4984060;28;92414;-61
2023/08/11 07:23:59;;;;;;;3.20;1.97;;;;;;;;;;4994736;28;92608;-60
2023/08/11 07:26:29;;;;;;;3.00;2.33;;;;;;;;;;4994494;28;93978;-61
2023/08/11 07:29:00;;;;;;;4.47;2.70;;;;;;;;;;4995030;28;93825;-60
2023/08/11 07:31:29;;;;;;;4.40;2.27;;;;;;;;;;4994266;28;93050;-59
2023/08/11 07:33:57;;;;;;;4.40;2.27;;;;;;;;;;4997751;28;92094;-59
2023/08/11 07:36:26;;;;;;;3.10;2.27;;;;;;;;;;4995735;28;94445;-59
2023/08/11 07:38:54;;;;;;;3.53;2.70;;;;;;;;;;4993403;28;93758;-59
2023/08/11 07:41:37;;;;;;;4.17;2.30;;;;;;;;;;4995092;28;92134;-59
2023/08/11 07:44:06;;;;;;;3.80;2.90;;;;;;;;;;4995067;28;92073;-59
2023/08/11 07:46:35;;;;;;;3.93;2.97;;;;;;;;;;4994380;28;94152;-59
2023/08/11 07:49:04;;;;;;;4.20;2.73;;;;;;;;;;4994503;28;92760;-60
2023/08/11 07:51:32;;;;;;;3.70;2.77;;;;;;;;;;5001938;28;92106;-60
2023/08/11 07:54:01;;;;;;;2.67;2.40;;;;;;;;;;4993999;28;91974;-58
2023/08/11 07:56:30;;;;;;;3.37;2.70;;;;;;;;;;4994216;28;93503;-59
2023/08/11 07:58:59;;;;;;;3.93;2.47;;;;;;;;;;4993838;28;93965;-59
2023/08/11 08:01:28;;;;;;;3.63;3.03;;;;;;;;;;4994201;28;93138;-59
2023/08/11 08:03:57;;;;;;;4.37;3.27;;;;;;;;;;4994364;28;92046;-58
2023/08/11 08:06:26;;;;;;;3.07;2.37;;;;;;;;;;4993620;28;93164;-58
2023/08/11 08:08:55;;;;;;;3.77;2.27;;;;;;;;;;4994030;28;92549;-59
2023/08/11 08:11:24;;;;;;;2.90;2.30;;;;;;;;;;4994738;28;92137;-59
2023/08/11 08:13:52;;;;;;;3.77;2.40;;;;;;;;;;4993058;28;92606;-59
2023/08/11 08:16:22;;;;;;;3.60;2.30;;;;;;;;;;4994185;28;92756;-59
2023/08/11 08:18:51;;;;;;;3.13;2.20;;;;;;;;;;4994379;28;93694;-59
2023/08/11 08:21:19;;;;;;;3.13;2.07;;;;;;;;;;4994808;28;92534;-59
2023/08/11 08:23:48;;;;;;;2.53;2.03;;;;;;;;;;4993819;28;92133;-58
2023/08/11 08:26:19;;;;;;;2.63;2.33;;;;;;;;;;4994116;28;97877;-58
2023/08/11 08:28:48;;;;;;;2.90;1.57;;;;;;;;;;4994362;28;94889;-64
2023/08/11 08:31:17;;;;;;;2.17;1.93;;;;;;;;;;4991404;28;92050;-59
2023/08/11 08:33:47;;;;;;;3.10;1.90;;;;;;;;;;4993796;28;92649;-58
2023/08/11 08:36:17;;;;;;;3.20;2.20;;;;;;;;;;4993713;28;94225;-60
2023/08/11 08:38:46;;;;;;;3.97;2.13;;;;;;;;;;4995077;28;93534;-58
2023/08/11 08:41:15;;;;;;;3.70;2.20;;;;;;;;;;4994207;28;92055;-59
2023/08/11 08:43:44;;;;;;;2.00;1.50;;;;;;;;;;4984741;28;91325;-59
2023/08/11 08:46:13;;;;;;;3.80;1.80;;;;;;;;;;4996416;28;93994;-58
2023/08/11 08:48:43;;;;;;;2.17;1.67;;;;;;;;;;4997187;28;93656;-59
2023/08/11 08:51:13;;;;;;;1.97;1.83;;;;;;;;;;4996897;28;92992;-59
2023/08/11 08:53:42;;;;;;;1.70;1.50;;;;;;;;;;4996637;28;92062;-58
2023/08/11 08:56:10;;;;;;;2.57;1.73;;;;;;;;;;4997224;28;94365;-59
2023/08/11 08:58:41;;;;;;;2.30;1.70;;;;;;;;;;4996383;28;93907;-59
2023/08/11 09:01:10;;;;;;;6.43;2.03;;;;;;;;;;4977402;28;92089;-58
2023/08/11 09:03:39;;;;;;;2.87;1.57;;;;;;;;;;4977690;28;92104;-59
2023/08/11 09:06:08;;;;;;;2.03;1.50;;;;;;;;;;4976868;28;94251;-59
2023/08/11 09:08:41;;;;;;;1.63;1.37;;;;;;;;;;4977107;28;92621;-59
2023/08/11 09:11:09;;;;;;;2.30;1.50;;;;;;;;;;4977124;28;92488;-58
2023/08/11 09:13:38;;;;;;;1.97;1.47;;;;;;;;;;4978684;28;92111;-59
2023/08/11 09:16:07;;;;;;;1.80;1.67;;;;;;;;;;4996979;28;95068;-59
2023/08/11 09:18:35;;;;;;;5.37;2.13;;;;;;;;;;4996581;28;98058;-59
2023/08/11 09:21:04;;;;;;;2.97;2.37;;;;;;;;;;4996377;28;92291;-58
2023/08/11 09:23:33;;;;;;;3.60;2.00;;;;;;;;;;4997234;28;92112;-59
2023/08/11 09:26:03;;;;;;;2.63;1.73;;;;;;;;;;4997206;28;94357;-59
2023/08/11 09:28:32;;;;;;;1.53;1.30;;;;;;;;;;4996435;28;92919;-59
2023/08/11 09:31:00;;;;;;;3.83;2.27;;;;;;;;;;4996890;28;92150;-60
2023/08/11 09:33:30;;;;;;;2.73;2.07;;;;;;;;;;4996940;28;91388;-59
2023/08/11 09:35:58;;;;;;;3.10;2.33;;;;;;;;;;4996921;28;93172;-59
2023/08/11 09:38:27;;;;;;;3.40;2.20;;;;;;;;;;4997040;28;92962;-59
2023/08/11 09:40:56;;;;;;;2.53;1.97;;;;;;;;;;4996880;28;93007;-59
2023/08/11 09:43:25;;;;;;;1.80;1.70;;;;;;;;;;4996614;28;92751;-59
2023/08/11 09:45:55;;;;;;;5.67;2.30;;;;;;;;;;4986004;28;92855;-59
2023/08/11 09:48:23;;;;;;;2.43;1.87;;;;;;;;;;4976856;28;94214;-59
2023/08/11 09:50:52;;;;;;;2.30;1.97;;;;;;;;;;4986029;28;92171;-59
2023/08/11 09:53:22;;;;;;;4.07;2.27;;;;;;;;;;4988210;28;92609;-59
2023/08/11 09:55:50;;;;;;;4.40;1.77;;;;;;;;;;4974910;28;94431;-59
2023/08/11 09:58:19;;;;;;;2.53;1.90;;;;;;;;;;4979882;28;93882;-59
2023/08/11 10:00:49;;;;;;;2.67;2.33;;;;;;;;;;4980363;28;93510;-59
2023/08/11 10:03:18;;;;;;;2.03;1.80;;;;;;;;;;4996020;28;92038;-59
2023/08/11 10:05:47;;;;;;;3.90;1.80;;;;;;;;;;4994160;28;95596;-59
2023/08/11 10:08:16;;;;;;;3.10;1.97;;;;;;;;;;4995918;28;93766;-59
2023/08/11 10:10:44;;;;;;;2.70;1.97;;;;;;;;;;4984664;28;92107;-59
2023/08/11 10:13:13;;;;;;;3.07;1.73;;;;;;;;;;4976157;28;92093;-59
2023/08/11 10:15:42;;;;;;;2.13;1.93;;;;;;;;;;4975917;28;94341;-59
2023/08/11 10:18:12;;;;;;;3.13;1.93;;;;;;;;;;4987808;28;92901;-59
2023/08/11 10:20:40;;;;;;;2.30;1.60;;;;;;;;;;4996566;28;92052;-59
2023/08/11 10:23:09;;;;;;;2.80;1.60;;;;;;;;;;4996862;28;91328;-59
2023/08/11 10:25:37;;;;;;;3.27;1.50;;;;;;;;;;4996204;28;94049;-59
2023/08/11 10:28:07;;;;;;;1.90;1.70;;;;;;;;;;4991569;28;93878;-59
2023/08/11 10:30:35;;;;;;;3.63;1.87;;;;;;;;;;4990799;28;94436;-60
2023/08/11 10:33:04;;;;;;;2.23;1.50;;;;;;;;;;4987882;28;93273;-59
2023/08/11 10:35:50;;;;;;;4.03;1.53;;;;;;;;;;4990835;28;94098;-59
2023/08/11 10:38:28;;;;;;;4.20;2.07;;;;;;;;;;4980685;28;93878;-59
2023/08/11 10:40:58;;;;;;;2.90;1.23;;;;;;;;;;4988874;28;93238;-60
2023/08/11 10:43:29;;;;;;;1.30;1.13;;;;;;;;;;4994973;28;92102;-59
2023/08/11 10:45:58;;;;;;;3.77;1.60;;;;;;;;;;4994099;28;93963;-59
2023/08/11 10:48:26;;;;;;;2.37;1.53;;;;;;;;;;4981379;28;93894;-59
2023/08/11 10:50:56;;;;;;;2.00;1.40;;;;;;;;;;4995404;28;92262;-59
2023/08/11 10:53:24;;;;;;;2.83;1.43;;;;;;;;;;4996359;28;92063;-59
2023/08/11 10:56:00;;;;;;;2.90;1.23;;;;;;;;;;4994673;28;95417;-58
2023/08/11 10:58:30;;;;;;;2.03;1.40;;;;;;;;;;4991986;28;94791;-59
2023/08/11 11:00:59;;;;;;;2.53;1.20;;;;;;;;;;4994850;28;92024;-58
2023/08/11 11:03:28;;;;;;;3.50;1.80;;;;;;;;;;4997910;28;92137;-59
2023/08/11 11:05:57;;;;;;;2.60;1.70;;;;;;;;;;4995936;28;93075;-59
2023/08/11 11:08:26;;;;;;;2.30;1.40;;;;;;;;;;4997431;28;92541;-58
2023/08/11 11:14:36;;;;;;;3.67;1.40;;;;;;;;;;4915996;28;91411;-58
2023/08/11 11:17:04;;;;;;;1.73;1.30;;;;;;;;;;4985557;28;94078;-59
2023/08/11 11:19:33;;;;;;;1.80;1.33;;;;;;;;;;4993716;28;92727;-59
2023/08/11 11:22:03;;;;;;;1.50;1.20;;;;;;;;;;4994085;28;93015;-59
2023/08/11 11:24:31;;;;;;;1.83;1.00;;;;;;;;;;4993503;28;92183;-58
2023/08/11 11:27:00;;;;;;;1.10;1.00;;;;;;;;;;4986581;28;94078;-59
2023/08/11 11:29:30;;;;;;;1.40;1.30;;;;;;;;;;4991886;28;93260;-59
2023/08/11 11:32:06;;;;;;;1.33;1.20;;;;;;;;;;4985122;28;92208;-59
2023/08/11 11:34:37;;;;;;;1.60;1.50;;;;;;;;;;4996461;28;92173;-59
2023/08/11 11:37:07;;;;;;;2.37;1.73;;;;;;;;;;4997075;28;94214;-59
2023/08/11 11:39:35;;;;;;;5.23;1.37;;;;;;;;;;4998381;28;92656;-59
2023/08/11 11:42:07;;;;;;;1.53;1.40;;;;;;;;;;4998004;28;92167;-59
2023/08/11 11:44:36;;;;;;;1.77;1.40;;;;;;;;;;4997993;28;92238;-59
2023/08/11 11:47:05;;;;;;;1.20;1.10;;;;;;;;;;4997409;28;95070;-59
2023/08/11 11:49:34;;;;;;;2.40;1.33;;;;;;;;;;4998181;28;94798;-59
2023/08/11 11:52:03;;;;;;;1.43;1.30;;;;;;;;;;4997874;28;91806;-58
2023/08/11 11:54:33;;;;;;;2.40;1.47;;;;;;;;;;4997447;28;92022;-59
2023/08/11 11:57:05;;;;;;;2.70;1.30;;;;;;;;;;4998071;28;94241;-59
2023/08/11 11:59:37;;;;;;;2.37;1.53;;;;;;;;;;4999301;28;92846;-59
2023/08/11 12:02:05;;;;;;;2.23;1.50;;;;;;;;;;4997978;28;92120;-59
2023/08/11 12:04:34;;;;;;;3.20;1.40;;;;;;;;;;4992073;28;93733;-59
2023/08/11 12:07:02;;;;;;;2.30;1.33;;;;;;;;;;4996924;28;94169;-59
2023/08/11 12:09:33;;;;;;;1.87;1.07;;;;;;;;;;4996881;28;92784;-59
2023/08/11 12:12:01;;;;;;;2.30;1.30;;;;;;;;;;4997622;28;93005;-59
2023/08/11 12:14:30;;;;;;;1.50;1.20;;;;;;;;;;4997501;28;91978;-59
2023/08/11 12:16:58;;;;;;;2.17;1.37;;;;;;;;;;4996875;28;94141;-59
2023/08/11 12:19:26;;;;;;;8.20;1.30;;;;;;;;;;5000409;28;93761;-59
2023/08/11 12:21:55;;;;;;;2.20;1.20;;;;;;;;;;5001176;28;91973;-59
2023/08/11 12:24:23;;;;;;;2.43;1.13;;;;;;;;;;5000300;28;92020;-59
2023/08/11 12:26:53;;;;;;;2.90;1.20;;;;;;;;;;5000430;28;93963;-59
2023/08/11 12:29:22;;;;;;;1.73;1.27;;;;;;;;;;5000796;28;93732;-59
2023/08/11 12:31:51;;;;;;;1.67;1.20;;;;;;;;;;5000919;28;92005;-59
2023/08/11 12:34:19;;;;;;;1.53;1.10;;;;;;;;;;5001559;28;92115;-59
2023/08/11 12:36:48;;;;;;;1.47;1.23;;;;;;;;;;5000407;28;95113;-59
2023/08/11 12:39:16;;;;;;;2.00;1.50;;;;;;;;;;4993553;28;93827;-59
2023/08/11 12:41:45;;;;;;;1.77;1.30;;;;;;;;;;5000550;28;92234;-59
2023/08/11 12:44:15;;;;;;;1.67;1.30;;;;;;;;;;5000293;28;92141;-58
2023/08/11 12:46:43;;;;;;;1.23;1.07;;;;;;;;;;5000491;28;94190;-58
2023/08/11 12:49:12;;;;;;;1.57;1.30;;;;;;;;;;5001502;28;93900;-59
2023/08/11 12:51:41;;;;;;;4.47;1.43;;;;;;;;;;5001266;28;92151;-59
2023/08/11 12:54:10;;;;;;;1.97;1.20;;;;;;;;;;5001110;28;91340;-59
2023/08/11 12:56:38;;;;;;;1.57;1.13;;;;;;;;;;5000111;28;94250;-59
2023/08/11 12:59:07;;;;;;;4.57;1.10;;;;;;;;;;5000454;28;92914;-59
2023/08/11 13:01:37;;;;;;;1.70;1.33;;;;;;;;;;5000242;28;92872;-59
2023/08/11 13:04:06;;;;;;;0.90;0.80;;;;;;;;;;4999924;28;92179;-59
2023/08/11 13:06:35;;;;;;;2.17;1.10;;;;;;;;;;4999980;28;93068;-58
2023/08/11 13:09:07;;;;;;;2.93;1.33;;;;;;;;;;4999995;28;93747;-59
2023/08/11 13:11:35;;;;;;;3.10;1.60;;;;;;;;;;4999852;28;92051;-59
2023/08/11 13:14:04;;;;;;;1.60;1.40;;;;;;;;;;4996195;28;92094;-58
2023/08/11 13:16:33;;;;;;;2.20;1.10;;;;;;;;;;4979921;28;94061;-58
2023/08/11 13:19:02;;;;;;;1.10;1.00;;;;;;;;;;4980633;28;92941;-58
2023/08/11 13:21:31;;;;;;;1.53;1.20;;;;;;;;;;4979970;28;92673;-58
2023/08/11 13:24:01;;;;;;;1.90;0.97;;;;;;;;;;4977580;28;92002;-59
2023/08/11 13:26:29;;;;;;;2.60;0.93;;;;;;;;;;4976830;28;95823;-58
2023/08/11 13:28:58;;;;;;;1.27;1.13;;;;;;;;;;4975549;28;95244;-58
2023/08/11 13:31:27;;;;;;;4.20;1.10;;;;;;;;;;4977099;28;92079;-59
2023/08/11 13:33:56;;;;;;;3.40;1.03;;;;;;;;;;4976757;28;92129;-59
2023/08/11 13:36:26;;;;;;;0.93;0.90;;;;;;;;;;4976326;28;94381;-59
2023/08/11 13:38:55;;;;;;;3.43;1.07;;;;;;;;;;4976573;28;92660;-59
2023/08/11 13:41:23;;;;;;;2.77;1.00;;;;;;;;;;4976428;28;92059;-58
2023/08/11 13:43:52;;;;;;;1.10;1.00;;;;;;;;;;4977037;28;91681;-58
2023/08/11 13:46:20;;;;;;;1.50;1.20;;;;;;;;;;4977007;28;93142;-59
2023/08/11 13:48:48;;;;;;;2.13;1.13;;;;;;;;;;4976380;28;93858;-59
2023/08/11 13:51:17;;;;;;;1.87;1.00;;;;;;;;;;4976503;28;93057;-59
2023/08/11 13:53:47;;;;;;;1.20;0.97;;;;;;;;;;4976622;28;92065;-59
2023/08/11 13:56:15;;;;;;;4.57;1.03;;;;;;;;;;4976764;28;94364;-58
2023/08/11 13:58:44;;;;;;;1.20;1.00;;;;;;;;;;4976138;28;92561;-59
2023/08/11 14:01:12;;;;;;;1.77;1.00;;;;;;;;;;4976035;28;92623;-59
2023/08/11 14:03:41;;;;;;;0.83;0.67;;;;;;;;;;4976487;28;92100;-59
2023/08/11 14:06:09;;;;;;;1.73;0.87;;;;;;;;;;4976725;28;94350;-58
2023/08/11 14:08:38;;;;;;;3.80;1.03;;;;;;;;;;4977411;28;91426;-60
2023/08/11 14:11:08;;;;;;;0.67;0.67;;;;;;;;;;4976748;28;92262;-59
2023/08/11 14:13:36;;;;;;;2.80;1.43;;;;;;;;;;4975867;28;92101;-58
2023/08/11 14:16:05;;;;;;;0.80;0.80;;;;;;;;;;4976400;28;95051;-58
2023/08/11 14:18:33;;;;;;;1.27;1.03;;;;;;;;;;4976667;28;94960;-59
2023/08/11 14:21:02;;;;;;;1.17;0.70;;;;;;;;;;4976295;28;92089;-59
2023/08/11 14:23:30;;;;;;;1.43;1.00;;;;;;;;;;4976641;28;92297;-58
2023/08/11 14:25:59;;;;;;;0.70;0.70;;;;;;;;;;4975742;28;94341;-58
2023/08/11 14:28:29;;;;;;;1.20;0.83;;;;;;;;;;4975996;28;93724;-58
2023/08/11 14:30:58;;;;;;;1.67;1.00;;;;;;;;;;4976431;28;92098;-58
2023/08/11 14:33:26;;;;;;;1.80;0.90;;;;;;;;;;4975877;28;91256;-58
2023/08/11 14:35:55;;;;;;;2.07;0.87;;;;;;;;;;4975915;28;93372;-59
2023/08/11 14:38:30;;;;;;;1.20;0.70;;;;;;;;;;4975808;28;93904;-59
2023/08/11 14:40:59;;;;;;;1.10;1.00;;;;;;;;;;4988153;28;93076;-60
2023/08/11 14:43:29;;;;;;;0.70;0.70;;;;;;;;;;4977023;28;91993;-60
2023/08/11 14:45:58;;;;;;;1.10;1.00;;;;;;;;;;4984730;28;93113;-60
2023/08/11 14:48:26;;;;;;;1.70;0.93;;;;;;;;;;4983876;28;93557;-60
2023/08/11 14:50:55;;;;;;;1.43;0.83;;;;;;;;;;4975968;28;92157;-60
2023/08/11 14:53:25;;;;;;;2.17;1.00;;;;;;;;;;4978666;28;92133;-57
2023/08/11 14:55:53;;;;;;;2.20;1.10;;;;;;;;;;4988659;28;93779;-56
2023/08/11 14:58:22;;;;;;;1.23;0.80;;;;;;;;;;4994625;28;92617;-56